createdAt,value
2023-04-18T00:01:34.906Z,15.13
2023-04-18T00:04:03.140Z,15.40
2023-04-18T00:06:32.542Z,14.70
2023-04-18T00:09:00.330Z,14.87
2023-04-18T00:11:28.074Z,15.20
2023-04-18T00:13:57.351Z,14.40
2023-04-18T00:16:25.220Z,15.10
2023-04-18T00:18:53.544Z,15.13
2023-04-18T00:21:23.242Z,15.43
2023-04-18T00:23:52.370Z,16.50
2023-04-18T00:26:20.096Z,14.37
2023-04-18T00:28:47.849Z,15.57
2023-04-18T00:31:15.629Z,15.20
2023-04-18T00:33:43.363Z,15.50
2023-04-18T00:36:11.109Z,14.43
2023-04-18T00:38:38.904Z,14.30
2023-04-18T00:41:07.994Z,14.83
2023-04-18T00:43:35.862Z,14.87
2023-04-18T00:46:03.643Z,15.67
2023-04-18T00:48:31.986Z,14.87
2023-04-18T00:51:00.382Z,14.30
2023-04-18T00:53:28.878Z,15.07
2023-04-18T00:55:56.760Z,15.07
2023-04-18T00:58:26.831Z,15.00
2023-04-18T01:00:55.022Z,13.73
2023-04-18T01:03:24.156Z,14.73
2023-04-18T01:05:52.041Z,14.87
2023-04-18T01:08:20.326Z,14.33
2023-04-18T01:10:48.569Z,16.13
2023-04-18T01:13:18.073Z,14.73
2023-04-18T01:15:48.681Z,14.87
2023-04-18T01:18:17.502Z,14.63
2023-04-18T01:20:47.819Z,14.23
2023-04-18T01:23:16.051Z,15.27
2023-04-18T01:25:45.994Z,15.10
2023-04-18T01:28:15.746Z,15.10
2023-04-18T01:30:43.613Z,13.90
2023-04-18T01:33:11.457Z,14.70
2023-04-18T01:35:39.238Z,13.60
2023-04-18T01:38:06.971Z,13.27
2023-04-18T01:40:34.741Z,14.17
2023-04-18T01:43:03.961Z,14.53
2023-04-18T01:45:31.771Z,14.40
2023-04-18T01:47:59.530Z,13.53
2023-04-18T01:50:27.279Z,14.47
2023-04-18T01:52:55.022Z,15.33
2023-04-18T01:55:22.765Z,14.30
2023-04-18T01:57:50.846Z,14.67
2023-04-18T02:00:21.350Z,14.63
2023-04-18T02:02:50.442Z,14.70
2023-04-18T02:05:18.326Z,14.47
2023-04-18T02:07:47.668Z,14.97
2023-04-18T02:10:15.717Z,14.17
2023-04-18T02:12:43.571Z,15.33
2023-04-18T02:15:12.236Z,13.70
2023-04-18T02:17:41.673Z,14.63
2023-04-18T02:20:10.959Z,13.33
2023-04-18T02:22:39.485Z,14.40
2023-04-18T02:25:08.229Z,14.07
2023-04-18T02:27:36.214Z,14.67
2023-04-18T02:30:04.280Z,15.40
2023-04-18T02:32:32.051Z,14.33
2023-04-18T02:35:01.244Z,15.13
2023-04-18T02:37:28.959Z,15.77
2023-04-18T02:39:56.913Z,14.83
2023-04-18T02:42:24.711Z,14.07
2023-04-18T02:44:52.423Z,15.40
2023-04-18T02:47:20.268Z,15.87
2023-04-18T02:49:48.109Z,14.33
2023-04-18T02:52:17.157Z,15.20
2023-04-18T02:54:44.917Z,15.63
2023-04-18T02:57:12.634Z,16.07
2023-04-18T02:59:40.532Z,15.27
2023-04-18T03:02:08.345Z,15.43
2023-04-18T03:04:36.337Z,14.37
2023-04-18T03:07:04.086Z,15.97
2023-04-18T03:09:33.262Z,15.63
2023-04-18T03:12:02.133Z,16.37
2023-04-18T03:14:29.904Z,16.63
2023-04-18T03:16:57.692Z,17.80
2023-04-18T03:19:25.486Z,16.43
2023-04-18T03:21:53.364Z,16.63
2023-04-18T03:24:21.088Z,14.83
2023-04-18T03:26:50.191Z,14.77
2023-04-18T03:29:17.973Z,15.70
2023-04-18T03:31:45.911Z,15.23
2023-04-18T03:34:14.040Z,15.47
2023-04-18T03:36:41.917Z,15.07
2023-04-18T03:39:09.709Z,15.20
2023-04-18T03:41:37.425Z,15.23
2023-04-18T03:44:06.748Z,16.03
2023-04-18T03:46:34.637Z,15.20
2023-04-18T03:49:02.366Z,15.63
2023-04-18T03:51:34.419Z,15.50
2023-04-18T03:54:02.190Z,15.93
2023-04-18T03:56:29.972Z,14.43
2023-04-18T03:58:58.734Z,13.83
2023-04-18T04:01:27.945Z,15.63
2023-04-18T04:03:55.821Z,15.63
2023-04-18T04:06:23.988Z,15.17
2023-04-18T04:08:51.684Z,16.00
2023-04-18T04:11:19.925Z,14.30
2023-04-18T04:13:47.612Z,14.80
2023-04-18T04:16:15.418Z,15.23
2023-04-18T04:18:44.866Z,15.73
2023-04-18T04:21:12.660Z,14.53
2023-04-18T04:23:42.048Z,14.33
2023-04-18T04:26:09.998Z,14.60
2023-04-18T04:28:39.897Z,14.03
2023-04-18T04:31:08.465Z,14.17
2023-04-18T04:33:38.885Z,14.10
2023-04-18T04:36:09.199Z,14.27
2023-04-18T04:38:38.438Z,15.17
2023-04-18T04:41:07.573Z,13.30
2023-04-18T04:43:35.863Z,15.13
2023-04-18T04:46:05.037Z,15.27
2023-04-18T04:48:32.806Z,16.43
2023-04-18T04:51:01.777Z,15.27
2023-04-18T04:53:31.413Z,16.93
2023-04-18T04:55:59.441Z,14.83
2023-04-18T04:58:28.006Z,16.47
2023-04-18T05:00:55.746Z,16.27
2023-04-18T05:03:23.747Z,16.53
2023-04-18T05:05:51.637Z,16.97
2023-04-18T05:08:19.386Z,18.00
2023-04-18T05:10:49.751Z,16.53
2023-04-18T05:13:17.801Z,16.87
2023-04-18T05:15:45.795Z,17.40
2023-04-18T05:18:14.204Z,18.07
2023-04-18T05:20:41.979Z,17.30
2023-04-18T05:23:09.844Z,17.87
2023-04-18T05:25:37.804Z,16.60
2023-04-18T05:28:08.359Z,16.57
2023-04-18T05:30:36.176Z,15.43
2023-04-18T05:33:04.287Z,16.03
2023-04-18T05:35:32.368Z,16.30
2023-04-18T05:38:00.420Z,15.20
2023-04-18T05:40:28.305Z,14.83
2023-04-18T05:42:56.042Z,16.40
2023-04-18T05:45:25.973Z,15.80
2023-04-18T05:47:54.449Z,16.00
2023-04-18T05:50:23.132Z,15.73
2023-04-18T05:52:50.905Z,15.67
2023-04-18T05:55:18.923Z,14.93
2023-04-18T05:57:46.723Z,15.80
2023-04-18T06:00:17.154Z,14.83
2023-04-18T06:02:46.555Z,15.00
2023-04-18T06:05:14.953Z,15.27
2023-04-18T06:07:43.496Z,15.17
2023-04-18T06:10:13.482Z,15.20
2023-04-18T06:12:41.615Z,14.23
2023-04-18T06:15:10.886Z,15.00
2023-04-18T06:17:38.747Z,13.30
2023-04-18T06:20:08.986Z,14.47
2023-04-18T06:22:36.787Z,13.47
2023-04-18T06:25:04.922Z,13.50
2023-04-18T06:27:32.668Z,12.87
2023-04-18T06:30:00.441Z,12.53
2023-04-18T06:32:28.226Z,14.03
2023-04-18T06:34:56.036Z,13.40
2023-04-18T06:37:25.344Z,13.63
2023-04-18T06:39:53.101Z,13.13
2023-04-18T06:42:22.345Z,13.20
2023-04-18T06:44:50.591Z,12.33
2023-04-18T06:47:18.591Z,13.60
2023-04-18T06:49:46.336Z,12.73
2023-04-18T06:52:14.171Z,12.40
2023-04-18T06:54:43.243Z,11.93
2023-04-18T06:57:11.085Z,13.37
2023-04-18T06:59:38.894Z,12.53
2023-04-18T07:02:06.848Z,12.43
2023-04-18T07:04:34.701Z,13.80
2023-04-18T07:07:03.779Z,13.57
2023-04-18T07:09:31.540Z,13.87
2023-04-18T07:12:00.710Z,13.00
2023-04-18T07:14:28.506Z,12.40
2023-04-18T07:16:57.664Z,13.00
2023-04-18T07:19:25.577Z,13.17
2023-04-18T07:21:53.956Z,12.73
2023-04-18T07:24:23.580Z,12.63
2023-04-18T07:26:53.143Z,12.83
2023-04-18T07:29:24.013Z,12.97
2023-04-18T07:31:53.077Z,13.83
2023-04-18T07:34:22.026Z,14.53
2023-04-18T07:36:50.032Z,13.90
2023-04-18T07:39:17.802Z,14.03
2023-04-18T07:41:45.617Z,14.33
2023-04-18T07:44:13.559Z,14.27
2023-04-18T07:46:43.014Z,14.70
2023-04-18T07:49:10.909Z,13.33
2023-04-18T07:51:38.838Z,14.00
2023-04-18T07:54:06.741Z,14.77
2023-04-18T07:56:34.530Z,15.23
2023-04-18T07:59:02.638Z,13.73
2023-04-18T08:01:31.024Z,12.83
2023-04-18T08:04:02.062Z,13.10
2023-04-18T08:06:30.666Z,12.83
2023-04-18T08:09:03.046Z,15.20
2023-04-18T08:11:31.062Z,13.43
2023-04-18T08:13:58.806Z,13.43
2023-04-18T08:16:26.823Z,13.60
2023-04-18T08:18:54.597Z,13.17
2023-04-18T08:21:23.680Z,12.63
2023-04-18T08:23:51.473Z,13.40
2023-04-18T08:26:19.682Z,13.17
2023-04-18T08:28:47.491Z,13.73
2023-04-18T08:31:16.435Z,13.20
2023-04-18T08:33:44.348Z,13.13
2023-04-18T08:36:12.146Z,13.37
2023-04-18T08:38:41.300Z,13.73
2023-04-18T08:41:10.205Z,13.33
2023-04-18T08:43:39.081Z,12.30
2023-04-18T08:46:07.952Z,13.40
2023-04-18T08:48:36.738Z,13.07
2023-04-18T08:51:05.399Z,13.33
2023-04-18T08:53:35.255Z,12.77
2023-04-18T08:56:05.531Z,12.53
2023-04-18T08:58:34.936Z,12.30
2023-04-18T09:01:02.846Z,12.37
2023-04-18T09:03:39.732Z,14.10
2023-04-18T09:06:09.293Z,13.50
2023-04-18T09:08:37.049Z,13.73
2023-04-18T09:11:26.452Z,12.17
2023-04-18T09:13:56.379Z,11.93
2023-04-18T09:16:25.024Z,12.13
2023-04-18T09:19:13.319Z,12.47
2023-04-18T09:21:44.502Z,12.20
2023-04-18T09:24:23.833Z,12.70
2023-04-18T09:26:55.892Z,11.80
2023-04-18T09:29:41.980Z,12.20
2023-04-18T09:32:09.876Z,13.30
2023-04-18T09:34:43.430Z,11.80
2023-04-18T09:37:12.781Z,11.73
2023-04-18T09:39:42.304Z,12.37
2023-04-18T09:42:11.783Z,12.73
2023-04-18T09:44:40.683Z,12.47
2023-04-18T09:47:08.701Z,12.20
2023-04-18T09:49:36.445Z,12.60
2023-04-18T09:52:07.428Z,11.70
2023-04-18T09:54:39.358Z,11.67
2023-04-18T09:57:13.649Z,11.77
2023-04-18T09:59:48.207Z,11.77
2023-04-18T10:02:22.135Z,11.70
2023-04-18T10:04:51.566Z,11.43
2023-04-18T10:07:19.568Z,12.10
2023-04-18T10:09:48.267Z,12.13
2023-04-18T10:12:18.991Z,12.00
2023-04-18T10:14:47.074Z,12.17
2023-04-18T10:17:15.973Z,11.77
2023-04-18T10:19:46.225Z,12.07
2023-04-18T10:22:14.197Z,11.67
2023-04-18T10:24:49.835Z,12.30
2023-04-18T10:27:20.083Z,12.67
2023-04-18T10:29:49.880Z,12.47
2023-04-18T10:32:18.171Z,15.80
2023-04-18T10:34:47.479Z,12.40
2023-04-18T10:37:17.659Z,12.47
2023-04-18T10:39:50.568Z,12.17
2023-04-18T10:42:19.826Z,11.73
2023-04-18T10:45:18.085Z,12.10
2023-04-18T10:47:46.030Z,11.97
2023-04-18T10:50:14.220Z,11.10
2023-04-18T10:52:43.770Z,12.47
2023-04-18T10:55:18.160Z,12.17
2023-04-18T10:57:48.698Z,11.80
2023-04-18T11:00:18.898Z,11.87
2023-04-18T11:02:51.617Z,10.53
2023-04-18T11:05:25.382Z,11.03
2023-04-18T11:07:53.625Z,10.43
2023-04-18T11:10:22.852Z,10.55
2023-04-18T11:12:53.116Z,11.75
2023-04-18T11:15:22.533Z,11.20
2023-04-18T11:18:00.900Z,11.10
2023-04-18T11:20:29.417Z,11.43
2023-04-18T11:22:58.412Z,11.07
2023-04-18T11:25:28.475Z,10.50
2023-04-18T11:28:00.590Z,11.13
2023-04-18T11:30:29.267Z,12.13
2023-04-18T11:32:57.024Z,11.00
2023-04-18T11:35:25.021Z,11.73
2023-04-18T11:37:52.801Z,11.82
2023-04-18T11:40:21.099Z,11.18
2023-04-18T11:42:48.875Z,11.02
2023-04-18T11:45:17.946Z,11.13
2023-04-18T11:47:46.977Z,11.52
2023-04-18T11:50:14.967Z,13.00
2023-04-18T11:52:43.397Z,10.88
2023-04-18T11:55:14.039Z,11.50
2023-04-18T11:57:42.765Z,11.55
2023-04-18T12:00:12.474Z,11.00
2023-04-18T12:02:43.633Z,11.75
2023-04-18T12:05:14.995Z,11.05
2023-04-18T12:07:45.883Z,12.00
2023-04-18T12:10:26.001Z,12.32
2023-04-18T12:12:55.286Z,11.70
2023-04-18T12:15:27.071Z,11.27
2023-04-18T12:17:59.675Z,11.75
2023-04-18T12:20:36.433Z,11.35
2023-04-18T12:23:04.666Z,11.43
2023-04-18T12:25:33.548Z,11.27
2023-04-18T12:28:03.604Z,11.55
2023-04-18T12:30:33.357Z,11.77
2023-04-18T12:33:04.889Z,11.40
2023-04-18T12:35:33.693Z,11.48
2023-04-18T12:38:03.019Z,13.45
2023-04-18T12:40:31.589Z,12.27
2023-04-18T12:43:00.586Z,12.27
2023-04-18T12:45:30.633Z,11.43
2023-04-18T12:47:58.434Z,11.47
2023-04-18T12:50:28.463Z,11.70
2023-04-18T12:53:00.868Z,11.80
2023-04-18T12:55:29.089Z,12.07
2023-04-18T12:57:58.076Z,11.13
2023-04-18T13:00:27.514Z,11.80
2023-04-18T13:02:55.426Z,13.23
2023-04-18T13:05:25.575Z,12.23
2023-04-18T13:08:08.641Z,13.23
2023-04-18T13:10:40.928Z,12.93
2023-04-18T13:13:08.694Z,12.27
2023-04-18T13:15:36.516Z,12.73
2023-04-18T13:18:06.187Z,12.02
2023-04-18T13:20:34.956Z,12.10
2023-04-18T13:23:04.698Z,12.97
2023-04-18T13:25:32.584Z,12.50
2023-04-18T13:28:01.065Z,12.13
2023-04-18T13:30:29.261Z,12.77
2023-04-18T13:32:57.115Z,12.13
2023-04-18T13:35:24.897Z,11.57
2023-04-18T13:37:52.692Z,11.65
2023-04-18T13:40:21.936Z,12.85
2023-04-18T13:42:49.676Z,11.02
2023-04-18T13:45:17.426Z,11.40
2023-04-18T13:47:45.282Z,11.95
2023-04-18T13:50:13.097Z,10.90
2023-04-18T13:52:40.829Z,11.65
2023-04-18T13:55:10.669Z,11.32
2023-04-18T13:57:41.112Z,10.88
2023-04-18T14:00:13.649Z,11.07
2023-04-18T14:02:41.829Z,12.43
2023-04-18T14:05:10.669Z,11.35
2023-04-18T14:07:38.931Z,11.73
2023-04-18T14:10:07.709Z,11.38
2023-04-18T14:12:35.592Z,10.73
2023-04-18T14:15:05.185Z,11.50
2023-04-18T14:17:33.058Z,11.13
2023-04-18T14:20:01.808Z,10.63
2023-04-18T14:22:29.694Z,11.75
2023-04-18T14:24:57.455Z,11.50
2023-04-18T14:27:26.199Z,10.50
2023-04-18T14:29:54.115Z,11.55
2023-04-18T14:32:23.185Z,11.00
2023-04-18T14:34:51.038Z,11.10
2023-04-18T14:37:18.778Z,10.90
2023-04-18T14:39:46.598Z,10.55
2023-04-18T14:42:14.333Z,11.82
2023-04-18T14:44:42.379Z,10.32
2023-04-18T14:47:10.367Z,10.52
2023-04-18T14:49:39.496Z,9.43
2023-04-18T14:52:07.228Z,9.98
2023-04-18T14:54:34.959Z,9.82
2023-04-18T14:57:02.697Z,9.85
2023-04-18T14:59:30.897Z,9.75
2023-04-18T15:01:58.720Z,8.93
2023-04-18T15:04:26.718Z,10.02
2023-04-18T15:06:56.354Z,9.75
2023-04-18T15:09:24.113Z,11.20
2023-04-18T15:11:52.104Z,9.98
2023-04-18T15:14:19.820Z,9.77
2023-04-18T15:16:50.183Z,10.35
2023-04-18T15:19:18.116Z,10.15
2023-04-18T15:21:45.896Z,10.43
2023-04-18T15:24:15.852Z,10.20
2023-04-18T15:26:43.959Z,9.77
2023-04-18T15:29:11.723Z,10.63
2023-04-18T15:31:39.663Z,11.23
2023-04-18T15:34:08.492Z,10.15
2023-04-18T15:36:36.882Z,10.32
2023-04-18T15:39:05.791Z,10.80
2023-04-18T15:41:36.375Z,10.18
2023-04-18T15:44:10.973Z,9.77
2023-04-18T15:46:39.057Z,10.63
2023-04-18T15:49:07.172Z,10.20
2023-04-18T15:51:34.945Z,10.25
2023-04-18T15:54:02.777Z,9.95
2023-04-18T15:56:33.048Z,10.85
2023-04-18T15:59:03.194Z,10.93
2023-04-18T16:01:31.067Z,10.30
2023-04-18T16:03:59.029Z,11.30
2023-04-18T16:06:27.584Z,10.05
2023-04-18T16:08:55.310Z,9.57
2023-04-18T16:11:26.070Z,9.50
2023-04-18T16:13:55.192Z,9.65
2023-04-18T16:16:24.446Z,9.55
2023-04-18T16:18:52.246Z,10.43
2023-04-18T16:21:19.980Z,9.35
2023-04-18T16:23:48.654Z,10.48
2023-04-18T16:26:16.452Z,9.68
2023-04-18T16:28:44.471Z,9.77
2023-04-18T16:31:12.271Z,9.18
2023-04-18T16:33:41.365Z,8.93
2023-04-18T16:36:10.130Z,8.85
2023-04-18T16:38:37.890Z,8.27
2023-04-18T16:41:05.885Z,7.30
2023-04-18T16:43:36.410Z,7.47
2023-04-18T16:46:04.506Z,7.15
2023-04-18T16:48:32.365Z,7.50
2023-04-18T16:51:01.494Z,7.18
2023-04-18T16:53:29.237Z,7.50
2023-04-18T16:55:57.025Z,6.75
2023-04-18T16:58:24.851Z,6.60
2023-04-18T17:00:53.272Z,6.50
2023-04-18T17:03:21.175Z,7.85
2023-04-18T17:05:49.008Z,6.75
2023-04-18T17:08:18.131Z,6.25
2023-04-18T17:10:45.902Z,5.72
2023-04-18T17:13:13.631Z,5.15
2023-04-18T17:15:42.931Z,4.60
2023-04-18T17:18:10.769Z,4.60
2023-04-18T17:20:38.567Z,4.82
2023-04-18T17:23:06.713Z,4.30
2023-04-18T17:25:36.603Z,3.70
2023-04-18T17:28:04.712Z,4.20
2023-04-18T17:30:32.608Z,4.35
2023-04-18T17:33:00.791Z,4.53
2023-04-18T17:35:28.657Z,4.57
2023-04-18T17:37:56.622Z,4.47
2023-04-18T17:40:24.612Z,4.68
2023-04-18T17:42:53.670Z,4.63
2023-04-18T17:45:21.446Z,4.57
2023-04-18T17:47:49.909Z,4.22
2023-04-18T17:50:17.839Z,4.33
2023-04-18T17:52:46.447Z,4.83
2023-04-18T17:55:14.691Z,4.10
2023-04-18T17:57:42.503Z,4.70
2023-04-18T18:00:13.826Z,4.57
2023-04-18T18:02:42.806Z,4.60
2023-04-18T18:05:12.998Z,4.73
2023-04-18T18:07:43.096Z,4.73
2023-04-18T18:10:12.074Z,4.57
2023-04-18T18:12:40.683Z,4.60
2023-04-18T18:15:11.382Z,5.17
2023-04-18T18:17:39.329Z,4.90
2023-04-18T18:20:09.763Z,4.73
2023-04-18T18:22:38.162Z,4.97
2023-04-18T18:25:06.782Z,4.93
2023-04-18T18:27:34.720Z,4.73
2023-04-18T18:30:02.622Z,4.97
2023-04-18T18:32:31.892Z,4.77
2023-04-18T18:34:59.874Z,4.70
2023-04-18T18:37:27.916Z,4.80
2023-04-18T18:39:56.391Z,5.07
2023-04-18T18:42:24.477Z,4.70
2023-04-18T18:44:52.494Z,5.53
2023-04-18T18:47:20.238Z,4.83
2023-04-18T18:49:49.584Z,5.17
2023-04-18T18:52:17.404Z,4.60
2023-04-18T18:54:45.339Z,5.63
2023-04-18T18:57:13.180Z,5.03
2023-04-18T18:59:41.552Z,5.00
2023-04-18T19:02:09.531Z,5.30
2023-04-18T19:04:37.843Z,5.37
2023-04-18T19:07:07.290Z,5.03
2023-04-18T19:09:36.851Z,4.87
2023-04-18T19:12:05.098Z,5.40
2023-04-18T19:14:33.064Z,5.30
2023-04-18T19:17:00.886Z,4.90
2023-04-18T19:19:28.766Z,5.30
2023-04-18T19:21:57.804Z,5.33
2023-04-18T19:24:27.010Z,5.23
2023-04-18T19:26:54.834Z,5.70
2023-04-18T19:29:24.087Z,5.43
2023-04-18T19:31:51.932Z,5.13
2023-04-18T19:34:19.888Z,5.83
2023-04-18T19:36:47.638Z,5.10
2023-04-18T19:39:16.478Z,5.60
2023-04-18T19:41:46.159Z,5.47
2023-04-18T19:44:14.000Z,5.33
2023-04-18T19:46:41.806Z,5.40
2023-04-18T19:49:09.676Z,5.37
2023-04-18T19:51:37.465Z,5.10
2023-04-18T19:54:05.733Z,5.20
2023-04-18T19:56:33.491Z,5.03
2023-04-18T19:59:04.886Z,5.33
2023-04-18T20:01:32.785Z,5.23
2023-04-18T20:04:01.168Z,5.50
2023-04-18T20:06:29.326Z,4.93
2023-04-18T20:08:57.449Z,5.20
2023-04-18T20:11:25.841Z,5.30
2023-04-18T20:13:55.604Z,4.97
2023-04-18T20:16:24.756Z,5.13
2023-04-18T20:18:54.808Z,5.93
2023-04-18T20:21:22.922Z,5.53
2023-04-18T20:23:51.143Z,5.20
2023-04-18T20:26:19.386Z,5.23
2023-04-18T20:28:47.371Z,5.23
2023-04-18T20:31:15.334Z,5.17
2023-04-18T20:33:44.519Z,6.53
2023-04-18T20:36:14.094Z,5.63
2023-04-18T20:38:41.910Z,5.70
2023-04-18T20:41:10.711Z,5.20
2023-04-18T20:43:38.928Z,5.77
2023-04-18T20:46:06.899Z,5.93
2023-04-18T20:48:34.802Z,5.97
2023-04-18T20:51:03.902Z,5.17
2023-04-18T20:53:31.864Z,5.83
2023-04-18T20:56:01.656Z,6.10
2023-04-18T20:58:29.430Z,6.00
2023-04-18T21:00:57.278Z,6.47
2023-04-18T21:03:25.271Z,5.80
2023-04-18T21:05:53.774Z,5.77
2023-04-18T21:08:22.929Z,6.20
2023-04-18T21:10:50.670Z,5.70
2023-04-18T21:13:18.447Z,5.70
2023-04-18T21:15:46.216Z,5.73
2023-04-18T21:18:14.020Z,6.20
2023-04-18T21:20:41.766Z,5.87
2023-04-18T21:23:09.517Z,6.87
2023-04-18T21:25:38.881Z,6.90
2023-04-18T21:28:07.921Z,6.47
2023-04-18T21:30:35.670Z,6.17
2023-04-18T21:33:03.719Z,6.70
2023-04-18T21:35:31.587Z,7.40
2023-04-18T21:37:59.335Z,6.53
2023-04-18T21:40:30.515Z,6.70
2023-04-18T21:42:59.672Z,6.53
2023-04-18T21:45:27.609Z,7.10
2023-04-18T21:47:55.444Z,6.97
2023-04-18T21:50:23.495Z,7.47
2023-04-18T21:52:51.249Z,7.80
2023-04-18T21:55:19.032Z,7.57
2023-04-18T21:57:46.807Z,6.90
2023-04-18T22:00:16.858Z,6.73
2023-04-18T22:02:44.762Z,7.90
2023-04-18T22:05:12.899Z,7.50
2023-04-18T22:07:54.349Z,7.40
2023-04-18T22:10:24.957Z,7.67
2023-04-18T22:12:54.014Z,8.37
2023-04-18T22:15:23.751Z,8.13
2023-04-18T22:17:51.599Z,8.53
2023-04-18T22:20:19.588Z,8.10
2023-04-18T22:22:47.401Z,7.27
2023-04-18T22:25:15.174Z,8.00
2023-04-18T22:27:43.658Z,8.40
2023-04-18T22:30:12.453Z,8.90
2023-04-18T22:32:41.748Z,9.47
2023-04-18T22:35:10.334Z,8.57
2023-04-18T22:37:38.106Z,9.30
2023-04-18T22:40:07.107Z,8.23
2023-04-18T22:42:35.625Z,8.40
2023-04-18T22:45:06.070Z,9.10
2023-04-18T22:47:34.743Z,8.80
2023-04-18T22:50:03.832Z,8.93
2023-04-18T22:52:31.631Z,8.97
2023-04-18T22:54:59.400Z,8.63
2023-04-18T22:57:27.270Z,8.73
2023-04-18T22:59:55.061Z,8.40
2023-04-18T23:02:23.013Z,9.13
2023-04-18T23:04:50.990Z,8.30
2023-04-18T23:07:20.253Z,8.60
2023-04-18T23:09:48.016Z,8.73
2023-04-18T23:12:15.922Z,7.93
2023-04-18T23:14:43.658Z,8.20
2023-04-18T23:17:11.427Z,7.53
2023-04-18T23:19:39.927Z,8.30
2023-04-18T23:22:07.710Z,7.57
2023-04-18T23:24:36.802Z,7.80
2023-04-18T23:27:04.625Z,7.23
2023-04-18T23:29:32.372Z,6.43
2023-04-18T23:32:00.185Z,6.63
2023-04-18T23:34:27.936Z,6.43
2023-04-18T23:36:55.684Z,7.53
2023-04-18T23:39:23.407Z,6.57
2023-04-18T23:41:52.462Z,6.17
2023-04-18T23:44:20.189Z,6.33
2023-04-18T23:46:48.282Z,6.37
2023-04-18T23:49:16.463Z,5.63
2023-04-18T23:51:44.211Z,6.77
2023-04-18T23:54:11.966Z,6.30
2023-04-18T23:56:39.705Z,5.87
2023-04-18T23:59:08.857Z,6.33
